CheckWX is a tool to help pilots better visualize weather data.  It is not intended as a substitute for an official pre-flight weather briefing.

22:36:43 UTC

KPLN TAF
Pellston Regional of Emmet County Airport
Pellston, Michigan, USA
KPLN 252321Z 2600/2624 VRB03KT P6SM BKN120 FM260200 00000KT P6SM SCT180 FM260400 00000KT 1SM BR SCT004 BKN150 FM261300 VRB03KT P6SM FEW035 FM261600 23005KT P6SM SCT050

May-26@
00:00 UTC

May-26 @ 00:00 UTC

May-26@
02:00 UTC

May-26 @ 02:00 UTC

TAF KPLN 252321Z 2600/2624 VRB03KT P6SM BKN120

Expired

Wind
  • Variable at 3 KTS
Cloud Levels
  • Broken at 12,000' AGL

May-26@
02:00 UTC

May-26 @ 02:00 UTC

May-26@
04:00 UTC

May-26 @ 04:00 UTC

FM260200 00000KT P6SM SCT180

Expired

Cloud Levels
  • Scattered at 18,000' AGL

May-26@
04:00 UTC

May-26 @ 04:00 UTC

May-26@
13:00 UTC

May-26 @ 13:00 UTC

FM260400 00000KT 1SM BR SCT004 BKN150

Expired

Conditions
Mist
Cloud Levels
  • Scattered at 400' AGL
  • Broken at 15,000' AGL

May-26@
13:00 UTC

May-26 @ 13:00 UTC

May-26@
16:00 UTC

May-26 @ 16:00 UTC

FM261300 VRB03KT P6SM FEW035

Expired

Wind
  • Variable at 3 KTS
Cloud Levels
  • Few at 3,500' AGL

May-26@
16:00 UTC

May-26 @ 16:00 UTC

May-27@
00:00 UTC

May-27 @ 00:00 UTC

FM261600 23005KT P6SM SCT050

From

From Standard forecast or significant change

Wind
  • 230° at 5 KTS
Cloud Levels
  • Scattered at 5,000' AGL